createdAt,value
2022-09-14T00:02:08.259Z,2.77
2022-09-14T00:04:34.621Z,2.80
2022-09-14T00:07:00.827Z,2.70
2022-09-14T00:09:27.067Z,2.67
2022-09-14T00:11:53.456Z,2.67
2022-09-14T00:14:20.207Z,2.57
2022-09-14T00:16:47.164Z,2.70
2022-09-14T00:19:21.020Z,2.70
2022-09-14T00:21:50.337Z,2.70
2022-09-14T00:24:16.554Z,2.80
2022-09-14T00:26:42.863Z,3.10
2022-09-14T00:29:10.004Z,2.70
2022-09-14T00:31:37.091Z,3.13
2022-09-14T00:34:04.397Z,3.07
2022-09-14T00:36:31.213Z,2.73
2022-09-14T00:38:58.025Z,3.50
2022-09-14T00:41:25.396Z,3.30
2022-09-14T00:43:51.628Z,3.40
2022-09-14T00:46:17.885Z,4.00
2022-09-14T00:48:44.261Z,3.53
2022-09-14T00:51:10.679Z,4.03
2022-09-14T00:53:38.019Z,3.87
2022-09-14T00:56:04.412Z,4.17
2022-09-14T00:58:30.673Z,4.07
2022-09-14T01:00:58.808Z,4.33
2022-09-14T01:03:25.149Z,4.50
2022-09-14T01:06:06.557Z,4.33
2022-09-14T01:08:45.125Z,4.90
2022-09-14T01:11:20.892Z,4.57
2022-09-14T01:13:55.445Z,4.50
2022-09-14T01:16:36.961Z,5.37
2022-09-14T01:19:10.348Z,5.00
2022-09-14T01:21:38.158Z,4.30
2022-09-14T01:24:12.208Z,4.50
2022-09-14T01:26:57.212Z,4.60
2022-09-14T01:29:26.881Z,4.50
2022-09-14T01:31:53.200Z,4.20
2022-09-14T01:34:22.580Z,4.60
2022-09-14T01:36:51.727Z,4.47
2022-09-14T01:39:19.655Z,4.57
2022-09-14T01:41:46.938Z,4.70
2022-09-14T01:44:16.249Z,5.00
2022-09-14T01:46:47.913Z,4.90
2022-09-14T01:49:17.089Z,4.90
2022-09-14T01:51:51.352Z,5.27
2022-09-14T01:54:23.219Z,4.97
2022-09-14T01:56:55.744Z,5.40
2022-09-14T01:59:21.975Z,5.67
2022-09-14T02:01:57.147Z,5.50
2022-09-14T02:04:37.271Z,4.97
2022-09-14T02:07:03.511Z,5.97
2022-09-14T02:09:29.768Z,5.53
2022-09-14T02:12:00.473Z,5.80
2022-09-14T02:14:26.933Z,6.00
2022-09-14T02:16:53.204Z,6.10
2022-09-14T02:19:23.677Z,5.90
2022-09-14T02:21:50.260Z,5.83
2022-09-14T02:24:17.118Z,6.60
2022-09-14T02:26:43.428Z,5.87
2022-09-14T02:29:10.004Z,6.00
2022-09-14T02:31:54.387Z,5.93
2022-09-14T02:34:40.625Z,6.60
2022-09-14T02:37:09.976Z,6.47
2022-09-14T02:39:54.289Z,6.37
2022-09-14T02:42:34.729Z,6.67
2022-09-14T02:45:00.956Z,5.90
2022-09-14T02:47:34.377Z,6.20
2022-09-14T02:50:09.697Z,6.43
2022-09-14T02:52:41.701Z,8.13
2022-09-14T02:55:09.807Z,7.30
2022-09-14T02:57:54.488Z,7.30
2022-09-14T03:00:20.770Z,8.47
2022-09-14T03:02:46.978Z,8.30
2022-09-14T03:05:13.251Z,8.50
2022-09-14T03:07:40.420Z,8.80
2022-09-14T03:10:06.862Z,8.63
2022-09-14T03:12:33.353Z,7.97
2022-09-14T03:14:59.612Z,9.00
2022-09-14T03:17:25.883Z,8.57
2022-09-14T03:19:52.122Z,8.83
2022-09-14T03:22:18.402Z,8.50
2022-09-14T03:24:44.729Z,8.93
2022-09-14T03:27:10.953Z,7.83
2022-09-14T03:29:37.203Z,8.27
2022-09-14T03:32:03.459Z,9.37
2022-09-14T03:34:29.727Z,7.97
2022-09-14T03:36:56.080Z,8.73
2022-09-14T03:39:22.353Z,8.63
2022-09-14T03:41:48.572Z,8.57
2022-09-14T03:44:14.863Z,8.20
2022-09-14T03:46:41.269Z,7.63
2022-09-14T03:49:07.568Z,7.60
2022-09-14T03:51:34.101Z,7.93
2022-09-14T03:54:00.337Z,7.30
2022-09-14T03:56:27.203Z,6.90
2022-09-14T03:58:53.634Z,6.70
2022-09-14T04:01:21.347Z,6.63
2022-09-14T04:03:48.357Z,6.43
2022-09-14T04:06:15.953Z,5.90
2022-09-14T04:08:42.978Z,6.10
2022-09-14T04:11:10.617Z,6.87
2022-09-14T04:13:37.157Z,6.40
2022-09-14T04:16:03.919Z,6.50
2022-09-14T04:18:48.847Z,6.50
2022-09-14T04:21:16.551Z,22.30
2022-09-14T04:24:10.123Z,12.37
2022-09-14T04:26:30.544Z,7.60
2022-09-14T04:28:57.087Z,7.47
2022-09-14T04:31:23.516Z,7.60
2022-09-14T04:33:51.203Z,8.27
2022-09-14T04:36:19.584Z,7.57
2022-09-14T04:38:46.436Z,7.67
2022-09-14T04:41:16.841Z,7.73
2022-09-14T04:43:43.901Z,8.33
2022-09-14T04:46:11.467Z,9.00
2022-09-14T04:48:37.761Z,8.53
2022-09-14T04:51:08.839Z,9.03
2022-09-14T04:53:36.052Z,9.40
2022-09-14T04:56:02.831Z,8.97
2022-09-14T04:58:29.076Z,9.00
2022-09-14T05:01:00.709Z,9.03
2022-09-14T05:03:26.915Z,9.00
2022-09-14T05:05:53.137Z,9.67
2022-09-14T05:08:19.431Z,9.47
2022-09-14T05:10:45.658Z,9.07
2022-09-14T05:13:11.906Z,9.67
2022-09-14T05:15:38.172Z,9.50
2022-09-14T05:18:04.457Z,9.70
2022-09-14T05:20:30.720Z,10.37
2022-09-14T05:22:56.949Z,8.83
2022-09-14T05:25:23.362Z,9.13
2022-09-14T05:27:50.101Z,9.57
2022-09-14T05:30:16.365Z,9.57
2022-09-14T05:32:42.587Z,9.63
2022-09-14T05:35:08.930Z,10.30
2022-09-14T05:37:35.165Z,11.43
2022-09-14T05:40:01.503Z,25.33
2022-09-14T05:42:27.847Z,13.53
2022-09-14T05:44:54.099Z,12.13
2022-09-14T05:47:20.316Z,11.37
2022-09-14T05:49:46.569Z,11.13
2022-09-14T05:52:12.808Z,11.70
2022-09-14T05:54:39.052Z,11.13
2022-09-14T05:57:05.366Z,30.83
2022-09-14T05:59:31.626Z,12.17
2022-09-14T06:01:58.235Z,11.50
2022-09-14T06:04:24.535Z,10.57
2022-09-14T06:07:07.919Z,11.33
2022-09-14T06:09:37.142Z,10.73
2022-09-14T06:12:03.700Z,10.77
2022-09-14T06:14:29.968Z,26.13
2022-09-14T06:16:56.243Z,48.87
2022-09-14T06:19:22.497Z,11.40
2022-09-14T06:21:48.737Z,9.03
2022-09-14T06:24:16.027Z,8.97
2022-09-14T06:26:42.297Z,8.80
2022-09-14T06:29:08.580Z,8.53
2022-09-14T06:31:35.050Z,9.33
2022-09-14T06:34:01.817Z,9.43
2022-09-14T06:36:28.764Z,9.60
2022-09-14T06:38:55.307Z,9.13
2022-09-14T06:41:23.175Z,8.43
2022-09-14T06:43:50.152Z,8.23
2022-09-14T06:46:16.463Z,8.30
2022-09-14T06:48:44.736Z,8.00
2022-09-14T06:51:11.829Z,8.37
2022-09-14T06:53:38.108Z,14.07
2022-09-14T06:56:04.986Z,9.13
2022-09-14T06:58:32.320Z,9.40
2022-09-14T07:01:02.946Z,8.23
2022-09-14T07:03:29.256Z,7.90
2022-09-14T07:06:01.411Z,6.93
2022-09-14T07:08:30.439Z,6.40
2022-09-14T07:10:57.896Z,5.53
2022-09-14T07:13:24.476Z,5.87
2022-09-14T07:15:50.734Z,5.30
2022-09-14T07:18:17.184Z,5.10
2022-09-14T07:20:43.582Z,5.17
2022-09-14T07:23:09.995Z,4.83
2022-09-14T07:25:36.324Z,4.83
2022-09-14T07:28:02.677Z,13.47
2022-09-14T07:30:29.003Z,12.23
2022-09-14T07:32:55.589Z,5.80
2022-09-14T07:35:21.903Z,4.57
2022-09-14T07:37:48.242Z,4.60
2022-09-14T07:40:14.569Z,4.27
2022-09-14T07:42:40.863Z,4.03
2022-09-14T07:45:07.315Z,4.10
2022-09-14T07:47:33.534Z,4.17
2022-09-14T07:49:59.761Z,5.40
2022-09-14T07:52:26.232Z,6.30
2022-09-14T07:54:52.531Z,6.53
2022-09-14T07:57:21.652Z,6.63
2022-09-14T07:59:58.426Z,6.43
2022-09-14T08:02:24.884Z,6.37
2022-09-14T08:04:53.836Z,6.07
2022-09-14T08:07:20.195Z,6.30
2022-09-14T08:09:47.022Z,5.33
2022-09-14T08:12:16.068Z,4.30
2022-09-14T08:14:42.637Z,3.87
2022-09-14T08:17:10.575Z,5.50
2022-09-14T08:19:37.169Z,5.27
2022-09-14T08:22:04.201Z,8.63
2022-09-14T08:24:30.480Z,7.00
2022-09-14T08:26:56.704Z,9.10
2022-09-14T08:29:23.007Z,4.67
2022-09-14T08:31:51.532Z,4.57
2022-09-14T08:34:18.472Z,4.47
2022-09-14T08:36:45.592Z,4.73
2022-09-14T08:39:12.937Z,4.60
2022-09-14T08:41:55.659Z,5.33
2022-09-14T08:44:24.200Z,5.00
2022-09-14T08:46:53.563Z,4.77
2022-09-14T08:49:22.600Z,4.83
2022-09-14T08:51:50.819Z,4.57
2022-09-14T08:54:17.278Z,5.00
2022-09-14T08:56:45.206Z,4.90
2022-09-14T08:59:30.094Z,4.93
2022-09-14T09:02:15.081Z,5.07
2022-09-14T09:04:48.973Z,5.33
2022-09-14T09:07:21.728Z,6.00
2022-09-14T09:09:49.566Z,7.70
2022-09-14T09:12:17.646Z,14.00
2022-09-14T09:14:50.270Z,18.17
2022-09-14T09:17:19.663Z,11.40
2022-09-14T09:19:55.183Z,9.90
2022-09-14T09:22:22.721Z,9.53
2022-09-14T09:24:50.984Z,8.13
2022-09-14T09:27:17.247Z,8.33
2022-09-14T09:29:43.715Z,8.43
2022-09-14T09:32:16.092Z,8.47
2022-09-14T09:34:42.335Z,7.70
2022-09-14T09:37:13.457Z,8.60
2022-09-14T09:39:39.725Z,8.13
2022-09-14T09:42:07.566Z,9.00
2022-09-14T09:44:53.089Z,8.73
2022-09-14T09:47:25.524Z,7.87
2022-09-14T09:49:57.301Z,8.60
2022-09-14T09:52:24.008Z,8.03
2022-09-14T09:54:51.427Z,8.57
2022-09-14T09:57:28.580Z,8.37
2022-09-14T10:00:11.211Z,7.00
2022-09-14T10:02:37.553Z,7.13
2022-09-14T10:05:04.187Z,8.10
2022-09-14T10:07:32.001Z,11.63
2022-09-14T10:10:04.484Z,8.53
2022-09-14T10:12:31.265Z,8.10
2022-09-14T10:15:13.089Z,7.77
2022-09-14T10:17:39.333Z,7.67
2022-09-14T10:20:06.160Z,9.30
2022-09-14T10:22:36.339Z,8.13
2022-09-14T10:25:22.084Z,8.73
2022-09-14T10:27:52.937Z,9.10
2022-09-14T10:30:20.214Z,8.57
2022-09-14T10:32:56.009Z,8.80
2022-09-14T10:35:23.495Z,8.27
2022-09-14T10:37:55.402Z,8.07
2022-09-14T10:40:27.591Z,8.00
2022-09-14T10:43:07.276Z,7.87
2022-09-14T10:45:40.828Z,8.37
2022-09-14T10:48:20.095Z,7.77
2022-09-14T10:51:02.047Z,8.43
2022-09-14T10:53:28.548Z,7.50
2022-09-14T10:56:17.772Z,7.60
2022-09-14T10:58:51.010Z,7.17
2022-09-14T11:01:20.180Z,7.80
2022-09-14T11:03:52.329Z,7.37
2022-09-14T11:06:18.537Z,7.23
2022-09-14T11:08:46.354Z,6.90
2022-09-14T11:11:15.703Z,6.07
2022-09-14T11:13:48.447Z,7.17
2022-09-14T11:16:24.913Z,6.43
2022-09-14T11:18:51.411Z,5.97
2022-09-14T11:21:24.797Z,6.03
2022-09-14T11:23:51.024Z,5.60
2022-09-14T11:26:34.324Z,5.70
2022-09-14T11:29:22.132Z,12.47
2022-09-14T11:32:17.012Z,5.00
2022-09-14T11:34:47.505Z,5.00
2022-09-14T11:37:19.350Z,4.00
2022-09-14T11:39:45.798Z,4.00
2022-09-14T11:42:20.673Z,3.50
2022-09-14T11:44:49.389Z,3.67
2022-09-14T11:47:18.304Z,4.40
2022-09-14T11:49:44.529Z,3.53
2022-09-14T11:52:17.133Z,3.17
2022-09-14T11:54:46.868Z,2.70
2022-09-14T11:57:17.436Z,3.13
2022-09-14T11:59:44.213Z,3.27
2022-09-14T12:02:22.828Z,3.00
2022-09-14T12:05:07.182Z,3.20
2022-09-14T12:07:39.476Z,4.63
2022-09-14T12:10:15.039Z,5.03
2022-09-14T12:13:01.558Z,5.67
2022-09-14T12:15:27.780Z,7.07
2022-09-14T12:17:54.092Z,8.00
2022-09-14T12:20:42.732Z,7.97
2022-09-14T12:23:22.708Z,8.60
2022-09-14T12:25:54.842Z,10.17
2022-09-14T12:28:27.231Z,9.07
2022-09-14T12:30:53.513Z,9.40
2022-09-14T12:33:31.763Z,10.20
2022-09-14T12:36:04.215Z,12.37
2022-09-14T12:38:30.473Z,13.37
2022-09-14T12:41:08.960Z,14.07
2022-09-14T12:43:35.275Z,14.97
2022-09-14T12:46:05.733Z,14.77
2022-09-14T12:48:47.349Z,14.97
2022-09-14T12:51:20.776Z,13.50
2022-09-14T12:53:51.783Z,14.27
2022-09-14T12:56:23.593Z,11.40
2022-09-14T12:58:50.881Z,10.77
2022-09-14T13:01:17.247Z,9.20
2022-09-14T13:03:56.864Z,9.47
2022-09-14T13:06:24.327Z,10.20
2022-09-14T13:08:53.610Z,9.70
2022-09-14T13:11:32.144Z,10.50
2022-09-14T13:13:59.144Z,10.70
2022-09-14T13:16:37.721Z,44.67
2022-09-14T13:19:07.109Z,17.20
2022-09-14T13:21:35.409Z,11.00
2022-09-14T13:24:01.872Z,11.03
2022-09-14T13:26:31.774Z,10.10
2022-09-14T13:28:59.396Z,9.10
2022-09-14T13:31:36.752Z,10.53
2022-09-14T13:34:04.656Z,10.33
2022-09-14T13:36:33.207Z,10.60
2022-09-14T13:39:01.470Z,10.93
2022-09-14T13:41:28.300Z,10.10
2022-09-14T13:43:55.416Z,10.43
2022-09-14T13:46:22.648Z,10.90
2022-09-14T13:48:49.781Z,11.23
2022-09-14T13:51:16.136Z,14.43
2022-09-14T13:53:45.699Z,23.00
2022-09-14T13:56:31.405Z,17.00
2022-09-14T13:59:06.604Z,13.27
2022-09-14T14:01:35.286Z,13.00
2022-09-14T14:04:01.636Z,11.17
2022-09-14T14:06:29.234Z,10.77
2022-09-14T14:09:06.551Z,10.97
2022-09-14T14:11:37.520Z,10.57
2022-09-14T14:14:16.043Z,10.40
2022-09-14T14:17:02.269Z,10.60
2022-09-14T14:19:29.762Z,10.57
2022-09-14T14:22:31.549Z,10.50
2022-09-14T14:25:14.528Z,10.47
2022-09-14T14:27:43.297Z,11.03
2022-09-14T14:30:28.477Z,9.80
2022-09-14T14:32:55.881Z,10.10
2022-09-14T14:35:25.860Z,11.27
2022-09-14T14:37:52.331Z,10.90
2022-09-14T14:40:19.000Z,10.53
2022-09-14T14:42:45.460Z,11.23
2022-09-14T14:45:15.715Z,10.47
2022-09-14T14:47:42.632Z,11.23
2022-09-14T14:50:16.891Z,10.60
2022-09-14T14:52:43.428Z,9.43
2022-09-14T14:55:10.475Z,9.63
2022-09-14T14:57:38.886Z,9.27
2022-09-14T15:00:13.131Z,9.13
2022-09-14T15:02:39.390Z,7.80
2022-09-14T15:05:05.856Z,5.50
2022-09-14T15:07:35.878Z,5.03
2022-09-14T15:10:04.196Z,15.43
2022-09-14T15:12:30.852Z,25.50
2022-09-14T15:14:57.276Z,6.13
2022-09-14T15:17:23.540Z,5.10
2022-09-14T15:19:49.772Z,5.27
2022-09-14T15:22:16.009Z,4.70
2022-09-14T15:24:42.406Z,4.00
2022-09-14T15:27:08.970Z,3.30
2022-09-14T15:29:35.199Z,4.10
2022-09-14T15:32:01.581Z,3.47
2022-09-14T15:34:27.835Z,3.00
2022-09-14T15:36:54.532Z,3.80
2022-09-14T15:39:23.056Z,4.77
2022-09-14T15:41:49.925Z,6.40
2022-09-14T15:44:16.616Z,6.63
2022-09-14T15:46:44.444Z,6.67
2022-09-14T15:49:12.631Z,6.00
2022-09-14T15:51:41.812Z,6.07
2022-09-14T15:54:08.208Z,5.00
2022-09-14T15:56:34.424Z,5.40
2022-09-14T15:59:00.928Z,5.83
2022-09-14T16:01:27.920Z,6.60
2022-09-14T16:03:56.285Z,7.30
2022-09-14T16:06:22.520Z,7.47
2022-09-14T16:08:48.806Z,7.30
2022-09-14T16:11:15.037Z,7.63
2022-09-14T16:13:41.240Z,8.13
2022-09-14T16:16:08.781Z,8.80
2022-09-14T16:18:35.608Z,10.03
2022-09-14T16:21:10.557Z,12.93
2022-09-14T16:23:38.205Z,13.13
2022-09-14T16:26:05.348Z,14.03
2022-09-14T16:28:31.553Z,13.70
2022-09-14T16:31:05.194Z,13.93
2022-09-14T16:33:35.143Z,13.23
2022-09-14T16:36:02.452Z,16.70
2022-09-14T16:38:29.633Z,17.60
2022-09-14T16:40:59.844Z,15.60
2022-09-14T16:43:26.151Z,15.83
2022-09-14T16:46:06.350Z,14.63
2022-09-14T16:48:33.751Z,15.00
2022-09-14T16:51:01.945Z,15.10
2022-09-14T16:53:29.236Z,14.87
2022-09-14T16:56:01.882Z,16.50
2022-09-14T16:58:28.479Z,15.50
2022-09-14T17:00:54.787Z,16.10
2022-09-14T17:03:21.149Z,16.03
2022-09-14T17:05:47.487Z,17.07
2022-09-14T17:08:13.735Z,16.87
2022-09-14T17:10:39.955Z,17.67
2022-09-14T17:13:06.195Z,16.60
2022-09-14T17:15:32.414Z,18.07
2022-09-14T17:17:58.648Z,17.90
2022-09-14T17:20:24.940Z,18.87
2022-09-14T17:22:51.400Z,18.70
2022-09-14T17:25:17.778Z,18.33
2022-09-14T17:27:44.009Z,19.20
2022-09-14T17:30:10.717Z,18.33
2022-09-14T17:32:36.996Z,20.77
2022-09-14T17:35:03.648Z,24.33
2022-09-14T17:37:29.866Z,24.20
2022-09-14T17:39:56.389Z,22.80
2022-09-14T17:42:22.872Z,19.60
2022-09-14T17:44:49.182Z,19.73
2022-09-14T17:47:15.427Z,19.57
2022-09-14T17:49:41.689Z,21.67
2022-09-14T17:52:07.909Z,21.07
2022-09-14T17:54:34.260Z,22.67
2022-09-14T17:57:00.497Z,22.97
2022-09-14T17:59:27.333Z,24.27
2022-09-14T18:01:53.580Z,23.13
2022-09-14T18:04:19.888Z,21.43
2022-09-14T18:06:47.620Z,19.33
2022-09-14T18:09:15.401Z,18.90
2022-09-14T18:11:42.078Z,17.93
2022-09-14T18:14:12.560Z,19.50
2022-09-14T18:16:39.215Z,17.63
2022-09-14T18:19:05.539Z,17.73
2022-09-14T18:21:31.925Z,17.97
2022-09-14T18:23:58.208Z,18.00
2022-09-14T18:26:25.110Z,18.03
2022-09-14T18:28:53.445Z,17.97
2022-09-14T18:31:19.893Z,18.63
2022-09-14T18:33:50.284Z,18.40
2022-09-14T18:36:16.916Z,20.00
2022-09-14T18:38:43.377Z,19.47
2022-09-14T18:41:10.441Z,17.97
2022-09-14T18:43:37.075Z,16.13
2022-09-14T18:46:07.218Z,15.37
2022-09-14T18:48:34.152Z,28.90
2022-09-14T18:51:01.215Z,18.80
2022-09-14T18:53:27.509Z,15.07
2022-09-14T18:55:53.786Z,13.77
2022-09-14T18:58:20.058Z,13.17
2022-09-14T19:00:46.970Z,12.47
2022-09-14T19:03:13.262Z,13.30
2022-09-14T19:05:40.880Z,13.90
2022-09-14T19:08:07.898Z,12.93
2022-09-14T19:10:37.323Z,13.53
2022-09-14T19:13:05.840Z,13.30
2022-09-14T19:15:32.899Z,13.67
2022-09-14T19:17:59.572Z,13.90
2022-09-14T19:20:34.294Z,13.37
2022-09-14T19:23:09.616Z,12.57
2022-09-14T19:25:39.765Z,12.63
2022-09-14T19:28:06.370Z,12.33
2022-09-14T19:30:33.369Z,12.00
2022-09-14T19:32:59.863Z,12.20
2022-09-14T19:35:26.709Z,12.10
2022-09-14T19:37:53.071Z,32.03
2022-09-14T19:40:19.634Z,34.90
2022-09-14T19:42:45.972Z,11.10
2022-09-14T19:45:14.757Z,11.07
2022-09-14T19:47:40.959Z,9.77
2022-09-14T19:50:09.033Z,10.37
2022-09-14T19:52:35.351Z,10.23
2022-09-14T19:55:01.672Z,10.40
2022-09-14T19:57:27.964Z,11.00
2022-09-14T19:59:54.249Z,11.37
2022-09-14T20:02:20.578Z,11.13
2022-09-14T20:04:47.017Z,11.63
2022-09-14T20:07:13.271Z,11.57
2022-09-14T20:09:39.475Z,11.40
2022-09-14T20:12:05.753Z,12.43
2022-09-14T20:14:31.959Z,11.43
2022-09-14T20:16:58.933Z,11.97
2022-09-14T20:19:26.620Z,12.03
2022-09-14T20:21:53.212Z,11.43
2022-09-14T20:24:25.261Z,11.33
2022-09-14T20:26:52.796Z,11.73
2022-09-14T20:29:19.644Z,11.23
2022-09-14T20:31:46.934Z,11.30
2022-09-14T20:34:13.855Z,12.03
2022-09-14T20:36:40.097Z,12.17
2022-09-14T20:39:06.778Z,11.50
2022-09-14T20:41:34.168Z,11.70
2022-09-14T20:44:00.477Z,11.83
2022-09-14T20:46:28.031Z,12.20
2022-09-14T20:48:54.574Z,12.53
2022-09-14T20:51:21.559Z,12.57
2022-09-14T20:53:48.196Z,12.20
2022-09-14T20:56:19.206Z,12.13
2022-09-14T20:58:45.834Z,12.47
2022-09-14T21:01:13.467Z,12.07
2022-09-14T21:03:41.473Z,12.37
2022-09-14T21:06:09.100Z,12.23
2022-09-14T21:08:36.248Z,12.50
2022-09-14T21:11:07.141Z,12.67
2022-09-14T21:13:33.820Z,12.40
2022-09-14T21:16:10.556Z,12.13
2022-09-14T21:18:36.935Z,12.70
2022-09-14T21:21:04.005Z,13.50
2022-09-14T21:23:30.232Z,14.20
2022-09-14T21:25:56.637Z,14.13
2022-09-14T21:28:22.853Z,15.07
2022-09-14T21:30:49.199Z,15.10
2022-09-14T21:33:16.409Z,15.23
2022-09-14T21:35:42.869Z,14.33
2022-09-14T21:38:09.223Z,13.63
2022-09-14T21:40:37.047Z,14.63
2022-09-14T21:43:03.856Z,14.33
2022-09-14T21:45:30.059Z,15.13
2022-09-14T21:47:56.277Z,14.93
2022-09-14T21:50:22.510Z,16.17
2022-09-14T21:52:48.751Z,16.40
2022-09-14T21:55:15.032Z,16.00
2022-09-14T21:57:41.257Z,16.97
2022-09-14T22:00:09.246Z,16.20
2022-09-14T22:02:35.651Z,16.20
2022-09-14T22:05:03.714Z,16.67
2022-09-14T22:07:30.009Z,18.50
2022-09-14T22:09:56.795Z,17.17
2022-09-14T22:12:23.017Z,17.67
2022-09-14T22:14:49.661Z,17.53
2022-09-14T22:17:16.305Z,18.03
2022-09-14T22:19:42.537Z,19.40
2022-09-14T22:22:09.295Z,18.87
2022-09-14T22:24:38.149Z,19.43
2022-09-14T22:27:08.369Z,19.87
2022-09-14T22:29:34.975Z,21.10
2022-09-14T22:32:01.410Z,19.87
2022-09-14T22:34:28.724Z,19.57
2022-09-14T22:36:54.961Z,20.10
2022-09-14T22:39:21.264Z,19.83
2022-09-14T22:41:47.563Z,19.57
2022-09-14T22:44:13.876Z,19.20
2022-09-14T22:46:40.087Z,19.00
2022-09-14T22:49:06.345Z,19.63
2022-09-14T22:51:32.591Z,19.90
2022-09-14T22:53:58.855Z,18.57
2022-09-14T22:56:27.012Z,18.67
2022-09-14T22:58:53.427Z,18.17
2022-09-14T23:01:21.883Z,19.00
2022-09-14T23:03:48.580Z,18.23
2022-09-14T23:06:14.896Z,18.87
2022-09-14T23:08:41.388Z,20.43
2022-09-14T23:11:08.996Z,18.83
2022-09-14T23:13:35.503Z,19.43
2022-09-14T23:16:02.161Z,20.67
2022-09-14T23:18:28.477Z,20.97
2022-09-14T23:20:54.710Z,23.00
2022-09-14T23:23:20.993Z,22.33
2022-09-14T23:25:47.353Z,23.50
2022-09-14T23:28:13.766Z,23.57
2022-09-14T23:30:40.097Z,22.63
2022-09-14T23:33:06.441Z,24.70
2022-09-14T23:35:35.789Z,24.30
2022-09-14T23:38:04.028Z,25.87
2022-09-14T23:40:30.353Z,24.43
2022-09-14T23:42:56.702Z,24.63
2022-09-14T23:45:22.984Z,26.97
2022-09-14T23:47:49.277Z,27.17
2022-09-14T23:50:15.538Z,26.30
2022-09-14T23:52:57.469Z,25.77
2022-09-14T23:55:24.380Z,24.73
2022-09-14T23:57:50.634Z,24.83
